createdAt,value
2023-03-23T15:58:14.264Z,99476.31
2023-03-23T16:00:47.159Z,99468.75
2023-03-23T16:03:27.540Z,99485.09
2023-03-23T16:06:03.324Z,99481.28
2023-03-23T16:08:33.331Z,99476.28
2023-03-23T16:11:00.168Z,99465.22
2023-03-23T16:13:30.254Z,99468.56
2023-03-23T16:15:59.713Z,99475.25
2023-03-23T16:18:31.629Z,99474.63
2023-03-23T16:21:00.967Z,99477.22
2023-03-23T16:23:30.061Z,99472.81
2023-03-23T16:25:56.699Z,99469.09
2023-03-23T16:28:23.498Z,99474.34
2023-03-23T16:30:50.303Z,99466.66
2023-03-23T16:33:20.351Z,99478.13
2023-03-23T16:35:47.233Z,99477.72
2023-03-23T16:38:16.469Z,99479.69
2023-03-23T16:40:47.501Z,99476.09
2023-03-23T16:43:14.576Z,99475.94
2023-03-23T16:45:49.766Z,99483.31
2023-03-23T16:56:28.831Z,99487.03
2023-03-23T17:12:40.328Z,99481.03
2023-03-23T17:15:09.306Z,99481.75
2023-03-23T17:17:36.637Z,99486.22
2023-03-23T17:20:06.403Z,99490.81
2023-03-23T17:22:33.322Z,99486.78
2023-03-23T17:25:00.202Z,99495.03
2023-03-23T17:41:04.106Z,99494.91
2023-03-23T17:43:31.519Z,99497.63
2023-03-23T17:45:58.215Z,99490.94
2023-03-23T17:48:26.896Z,99507.28
2023-03-23T18:02:00.414Z,99506.66
2023-03-23T18:12:55.892Z,99517.19
2023-03-23T18:26:37.570Z,99524.63
2023-03-23T18:29:04.866Z,99525.88
2023-03-23T18:31:42.434Z,99524.91
2023-03-23T18:34:09.673Z,99532.31
2023-03-23T18:36:38.923Z,99539.72
2023-03-23T18:39:06.212Z,99544.19
2023-03-23T18:41:32.843Z,99552.28
2023-03-23T18:44:11.710Z,99550.34
2023-03-23T18:46:46.137Z,99538.72
2023-03-23T18:49:12.889Z,99542.34
2023-03-23T18:51:42.250Z,99542.88
2023-03-23T18:54:09.133Z,99545.09
2023-03-23T18:56:37.138Z,99547.50
2023-03-23T18:59:03.802Z,99540.41
2023-03-23T19:01:30.500Z,99552.50
2023-03-23T19:03:57.273Z,99533.72
2023-03-23T19:06:30.163Z,99534.63
2023-03-23T19:08:57.825Z,99528.53
2023-03-23T19:11:31.948Z,99527.69
2023-03-23T19:14:10.692Z,99524.00
2023-03-23T19:19:25.555Z,99528.53
2023-03-23T19:48:39.617Z,99515.53
2023-03-23T19:51:11.934Z,99515.69
2023-03-23T19:53:47.860Z,99522.22
2023-03-23T20:09:51.401Z,99514.00
2023-03-23T20:25:50.354Z,99501.59
2023-03-23T20:28:17.545Z,99499.59
2023-03-23T20:30:44.470Z,99495.03
2023-03-23T20:33:11.244Z,99492.19
2023-03-23T20:35:38.413Z,99494.91
2023-03-23T20:38:05.206Z,99491.72
2023-03-23T20:40:32.239Z,99492.69
2023-03-23T20:43:01.272Z,99491.69
2023-03-23T20:45:28.125Z,99485.47
2023-03-23T20:50:35.753Z,99493.53
2023-03-23T20:53:03.137Z,99490.50
2023-03-23T20:55:30.016Z,99499.91
2023-03-23T20:57:56.668Z,99501.91
2023-03-23T21:00:23.474Z,99493.66
2023-03-23T21:02:54.053Z,99506.22
2023-03-23T21:05:21.392Z,99503.03
2023-03-23T21:07:49.691Z,99502.88
2023-03-23T21:10:17.208Z,99490.47
2023-03-23T21:12:47.201Z,99498.69
2023-03-23T21:15:14.064Z,99500.22
2023-03-23T21:17:41.514Z,99496.34
2023-03-23T21:20:11.103Z,99491.50
2023-03-23T21:22:37.881Z,99494.53
2023-03-23T21:25:05.029Z,99497.69
2023-03-23T21:27:35.518Z,99500.88
2023-03-23T21:30:03.639Z,99495.53
2023-03-23T21:32:32.416Z,99483.75
2023-03-23T21:35:02.594Z,99486.28
2023-03-23T21:37:30.835Z,99484.63
2023-03-23T21:39:59.317Z,99481.25
2023-03-23T21:42:30.220Z,99475.06
2023-03-23T21:45:03.942Z,99473.69
2023-03-23T21:47:33.698Z,99469.84
2023-03-23T21:50:00.357Z,99467.16
2023-03-23T21:52:27.079Z,99464.47
2023-03-23T21:54:53.987Z,99466.81
2023-03-23T21:57:20.737Z,99469.00
2023-03-23T21:59:47.485Z,99473.69
2023-03-23T22:02:16.645Z,99459.94
2023-03-23T22:04:43.870Z,99458.63
2023-03-23T22:07:12.525Z,99464.16
2023-03-23T22:09:44.997Z,99465.47
2023-03-23T22:12:13.059Z,99458.44
2023-03-23T22:14:40.883Z,99460.47
2023-03-23T22:17:08.962Z,99447.84
2023-03-23T22:19:36.597Z,99453.25
2023-03-23T22:22:06.376Z,99446.72
2023-03-23T22:24:36.263Z,99432.59
2023-03-23T22:27:03.147Z,99434.44
2023-03-23T22:29:29.902Z,99421.88
2023-03-23T22:31:56.606Z,99428.06
2023-03-23T22:34:23.802Z,99423.69
2023-03-23T22:36:51.455Z,99415.13
2023-03-23T22:39:18.484Z,99404.88
2023-03-23T22:41:45.931Z,99395.31
2023-03-23T22:44:18.789Z,99401.56
2023-03-23T22:46:46.205Z,99402.91
2023-03-23T22:49:13.805Z,99403.88
2023-03-23T22:51:43.595Z,99386.94
2023-03-23T22:54:11.507Z,99389.09
2023-03-23T22:56:38.727Z,99382.06
2023-03-23T22:59:07.944Z,99373.84
2023-03-23T23:01:35.980Z,99375.03
2023-03-23T23:04:04.164Z,99370.66
2023-03-23T23:06:30.991Z,99368.31
2023-03-23T23:08:57.796Z,99361.94
2023-03-23T23:11:25.856Z,99355.22
2023-03-23T23:13:53.143Z,99347.31
2023-03-23T23:16:22.189Z,99357.22
2023-03-23T23:18:50.238Z,99349.00
2023-03-23T23:21:22.855Z,99342.28
2023-03-23T23:23:51.744Z,99346.97
2023-03-23T23:26:19.723Z,99340.78
2023-03-23T23:28:48.543Z,99334.53
2023-03-23T23:31:27.155Z,99339.28
2023-03-23T23:33:59.526Z,99326.84
2023-03-23T23:36:29.819Z,99320.44
2023-03-23T23:39:00.454Z,99319.44
2023-03-23T23:41:29.207Z,99314.22
2023-03-23T23:43:56.270Z,99310.19
2023-03-23T23:46:23.093Z,99306.16
2023-03-23T23:48:49.828Z,99302.47
2023-03-23T23:51:17.499Z,99307.50
2023-03-23T23:53:53.089Z,99293.88
2023-03-23T23:56:22.130Z,99288.72
2023-03-23T23:58:49.240Z,99277.75
